^^
Station Historical Data
Daily Summary for April 10, 2017 Units:  Metric    English   Both
« Previous Day
Next Day »
Daily Weekly Monthly Yearly Custom
  High: Low: Average:
Temperature: 32.3 °C 15.6 °C 23.5 °C
Dew Point: 15.6 °C 0.9 °C 7.3 °C
Humidity: 58% 18% 38%
Wind Speed: 30.6km/h 0km/h 3.9km/h
Wind Gust: 30.6km/h - -
Wind- - WSW
Pressure: 1013.4 hPa 1009 hPa -
Precipitation: 0 mm    
Historical Graphs
 
 
Tabular Data for April 10, 2017
Time Temperature Dew Point Pressure Wind Wind Speed Wind Gust Humidity Rainfall Rate (Hourly) solar Conditions
00:00 22.1 °C 6.7 °C 1013.4 hPa Calm     37% 0 mm 0.0 W/m2
00:10 22.1 °C 6.7 °C 1013.4 hPa Calm     37% 0 mm 0.0 W/m2
00:15 22 °C 6.6 °C 1013.4 hPa Calm     37% 0 mm 0.0 W/m2
00:20 22 °C 6.6 °C 1013.4 hPa SSW 4.7 km/h 9.7 km/h 37% 0 mm 0.0 W/m2
00:25 22 °C 6.6 °C 1013.4 hPa Calm     37% 0 mm 0.0 W/m2
00:30 21.9 °C 6.5 °C 1013.4 hPa Calm     37% 0 mm 0.0 W/m2
00:35 21.8 °C 6.5 °C 1013.4 hPa Calm     37% 0 mm 0.0 W/m2
00:41 21.7 °C 6.4 °C 1013.4 hPa Calm     37% 0 mm 0.0 W/m2
00:46 21.6 °C 6.7 °C 1013.4 hPa Calm     38% 0 mm 0.0 W/m2
00:51 21.5 °C 6.6 °C 1013.4 hPa Calm     38% 0 mm 0.0 W/m2
00:57 21.4 °C 6.5 °C 1013.4 hPa Calm     38% 0 mm 0.0 W/m2
01:02 21.3 °C 6.4 °C 1013.1 hPa Calm     38% 0 mm 0.0 W/m2
01:07 21.3 °C 6.4 °C 1013.4 hPa Calm     38% 0 mm 0.0 W/m2
01:12 21.3 °C 6.4 °C 1013.1 hPa Calm     38% 0 mm 0.0 W/m2
01:17 21.3 °C 6.4 °C 1013.1 hPa Calm     38% 0 mm 0.0 W/m2
01:22 21.4 °C 6.1 °C 1013.1 hPa Calm     37% 0 mm 0.0 W/m2
01:27 21.3 °C 6 °C 1013.1 hPa Calm     37% 0 mm 0.0 W/m2
01:32 21.3 °C 6 °C 1012.8 hPa Calm     37% 0 mm 0.0 W/m2
01:38 21.4 °C 5.7 °C 1012.8 hPa Calm     36% 0 mm 0.0 W/m2
01:43 21.5 °C 5.4 °C 1012.8 hPa Calm     35% 0 mm 0.0 W/m2
01:48 21.6 °C 5.5 °C 1012.8 hPa Calm     35% 0 mm 0.0 W/m2
01:53 21.8 °C 5.7 °C 1012.8 hPa Calm     35% 0 mm 0.0 W/m2
01:58 21.8 °C 5.7 °C 1012.8 hPa Calm     35% 0 mm 0.0 W/m2
02:03 21.9 °C 5.3 °C 1012.8 hPa Calm     34% 0 mm 0.0 W/m2
02:08 21.8 °C 5.2 °C 1012.8 hPa Calm     34% 0 mm 0.0 W/m2
02:14 21.7 °C 5.6 °C 1012.8 hPa Calm     35% 0 mm 0.0 W/m2
02:19 21.5 °C 5.4 °C 1012.8 hPa Calm     35% 0 mm 0.0 W/m2
02:24 21.3 °C 5.6 °C 1012.4 hPa Calm     36% 0 mm 0.0 W/m2
02:29 21.1 °C 5 °C 1012.4 hPa Calm     35% 0 mm 0.0 W/m2
02:35 20.8 °C 5.6 °C 1012.4 hPa Calm     37% 0 mm 0.0 W/m2
02:40 20.6 °C 5.8 °C 1012.4 hPa Calm     38% 0 mm 0.0 W/m2
02:45 20.4 °C 6 °C 1012.4 hPa Calm     39% 0 mm 0.0 W/m2
02:50 20.2 °C 5.8 °C 1012.4 hPa Calm     39% 0 mm 0.0 W/m2
02:55 20.1 °C 6.4 °C 1012.4 hPa Calm     41% 0 mm 0.0 W/m2
03:00 20 °C 6.3 °C 1012.4 hPa Calm     41% 0 mm 0.0 W/m2
03:05 19.9 °C 6.6 °C 1012.4 hPa Calm     42% 0 mm 0.0 W/m2
03:10 19.8 °C 7.2 °C 1012.4 hPa Calm     44% 0 mm 0.0 W/m2
03:15 20.1 °C 7.8 °C 1012.4 hPa Calm     45% 0 mm 0.0 W/m2
03:21 20.3 °C 8.3 °C 1012.4 hPa Calm     46% 0 mm 0.0 W/m2
03:26 20.4 °C 8.4 °C 1012.4 hPa Calm     46% 0 mm 0.0 W/m2
03:31 20.4 °C 8.4 °C 1012.4 hPa Calm     46% 0 mm 0.0 W/m2
03:36 20.3 °C 8.3 °C 1012.4 hPa Calm     46% 0 mm 0.0 W/m2
03:41 20.2 °C 8.2 °C 1012.4 hPa Calm     46% 0 mm 0.0 W/m2
03:46 19.9 °C 7.9 °C 1012.4 hPa Calm     46% 0 mm 0.0 W/m2
03:51 19.8 °C 8.5 °C 1012.4 hPa Calm     48% 0 mm 0.0 W/m2
03:56 19.8 °C 8.8 °C 1012.4 hPa Calm     49% 0 mm 0.0 W/m2
04:02 19.6 °C 7.7 °C 1012.4 hPa Calm     46% 0 mm 0.0 W/m2
04:07 19.1 °C 7.2 °C 1012.4 hPa Calm     46% 0 mm 0.0 W/m2
04:12 18.7 °C 7.5 °C 1012.4 hPa Calm     48% 0 mm 0.0 W/m2
04:17 18.4 °C 6.9 °C 1012.4 hPa Calm     47% 0 mm 0.0 W/m2
04:22 18.1 °C 7.2 °C 1012.4 hPa Calm     49% 0 mm 0.0 W/m2
04:28 17.8 °C 7.2 °C 1012.4 hPa Calm     50% 0 mm 0.0 W/m2
04:33 17.6 °C 7.3 °C 1012.4 hPa Calm     51% 0 mm 0.0 W/m2
04:38 17.3 °C 7.1 °C 1012.4 hPa Calm     51% 0 mm 0.0 W/m2
04:44 17.1 °C 6.9 °C 1012.4 hPa Calm     51% 0 mm 0.0 W/m2
04:49 16.8 °C 6.6 °C 1012.8 hPa Calm     51% 0 mm 0.0 W/m2
04:54 16.7 °C 6.8 °C 1012.4 hPa Calm     52% 0 mm 0.0 W/m2
05:04 16.4 °C 6.8 °C 1012.4 hPa Calm     53% 0 mm 0.0 W/m2
05:09 16.3 °C 6.7 °C 1012.4 hPa Calm     53% 0 mm 0.0 W/m2
05:15 16.2 °C 7.1 °C 1012.8 hPa Calm     55% 0 mm 0.0 W/m2
05:20 16.1 °C 6.8 °C 1012.8 hPa Calm     54% 0 mm 0.0 W/m2
05:25 16.1 °C 6.8 °C 1012.8 hPa Calm     54% 0 mm 0.0 W/m2
05:30 16.1 °C 6.5 °C 1012.8 hPa Calm     53% 0 mm 0.0 W/m2
05:35 15.9 °C 6.6 °C 1012.8 hPa Calm     54% 0 mm 0.0 W/m2
05:40 15.8 °C 6.5 °C 1012.8 hPa Calm     54% 0 mm 0.0 W/m2
05:46 15.7 °C 6.4 °C 1012.8 hPa Calm     54% 0 mm 0.0 W/m2
05:51 15.7 °C 6.7 °C 1012.8 hPa Calm     55% 0 mm 0.0 W/m2
05:56 15.7 °C 6.7 °C 1013.1 hPa Calm     55% 0 mm 0.0 W/m2
06:00 15.7 °C 6.7 °C 1013.1 hPa Calm     55% 0 mm 0.0 W/m2
06:08 15.6 °C 6.9 °C 1013.1 hPa Calm     56% 0 mm 0.0 W/m2
06:10 15.6 °C 6.6 °C 1013.1 hPa Calm     55% 0 mm 7.0 W/m2
06:27 15.7 °C 6.9 °C 1013.1 hPa Calm     56% 0 mm 14.0 W/m2
06:38 15.9 °C 6.9 °C 1013.1 hPa Calm     55% 0 mm 21.0 W/m2
06:46 16.6 °C 7.3 °C 1013.1 hPa Calm     54% 0 mm 79.0 W/m2
07:03 17.4 °C 7.7 °C 1013.1 hPa Calm     53% 0 mm 116.0 W/m2
07:11 18.8 °C 8.4 °C 1013.4 hPa Calm     51% 0 mm 179.0 W/m2
07:34 20.1 °C 9.1 °C 1013.4 hPa Calm     49% 0 mm 248.0 W/m2
07:46 21.5 °C 10.6 °C 1013.4 hPa Calm     50% 0 mm 299.0 W/m2
07:55 22.1 °C 12.4 °C 1013.4 hPa Calm     54% 0 mm 345.0 W/m2
07:57 22.4 °C 12.6 °C 1013.4 hPa Calm     54% 0 mm 357.0 W/m2
08:14 23.3 °C 14.6 °C 1013.4 hPa Calm   4.8 km/h 58% 0 mm 392.0 W/m2
08:22 23.9 °C 15.1 °C 1013.4 hPa SSW 9.7 km/h 12.9 km/h 58% 0 mm 446.0 W/m2
08:32 24.1 °C 15 °C 1013.4 hPa SSW 1.4 km/h 12.9 km/h 57% 0 mm 462.0 W/m2
08:43 24.5 °C 15.1 °C 1013.4 hPa WSW 6.4 km/h 12.9 km/h 56% 0 mm 487.0 W/m2
08:47 24.7 °C 14.8 °C 1013.4 hPa Calm   20.9 km/h 54% 0 mm 513.0 W/m2
09:02 24.8 °C 14.6 °C 1013.1 hPa NW 1.4 km/h 17.7 km/h 53% 0 mm 541.0 W/m2
09:17 25.4 °C 14.8 °C 1013.1 hPa NW 4.7 km/h 16.1 km/h 52% 0 mm 584.0 W/m2
09:24 25.4 °C 14.8 °C 1013.1 hPa NW 4.7 km/h 16.1 km/h 52% 0 mm 584.0 W/m2
09:28 26 °C 15.4 °C 1013.1 hPa NW 17.7 km/h 17.7 km/h 52% 0 mm 605.0 W/m2
09:45 26 °C 14.8 °C 1013.1 hPa NW 13 km/h 16.1 km/h 50% 0 mm 633.0 W/m2
09:53 26.2 °C 15.6 °C 1013.1 hPa NW 3.2 km/h 12.9 km/h 52% 0 mm 677.0 W/m2
10:08 26.8 °C 14.9 °C 1013.1 hPa Calm   4.8 km/h 48% 0 mm 691.0 W/m2
10:23 27.1 °C 14.1 °C 1012.8 hPa NW 4.7 km/h 11.3 km/h 45% 0 mm 810.0 W/m2
10:45 27.6 °C 13.9 °C 1012.8 hPa Calm   6.4 km/h 43% 0 mm 629.0 W/m2
10:54 27.9 °C 13.1 °C 1012.8 hPa Calm   16.1 km/h 40% 0 mm 759.0 W/m2
11:09 28.7 °C 12.2 °C 1012.4 hPa NW 6.4 km/h 12.9 km/h 36% 0 mm 763.0 W/m2
11:24 28.8 °C 12.7 °C 1012.4 hPa NW 9.7 km/h 11.3 km/h 37% 0 mm 773.0 W/m2
11:34 29.1 °C 10.7 °C 1012.1 hPa NW 16.3 km/h 16.3 km/h 32% 0 mm 782.0 W/m2
11:49 29.4 °C 10.5 °C 1011.7 hPa NW 3.2 km/h 6.4 km/h 31% 0 mm 782.0 W/m2
12:04 29.8 °C 7.7 °C 1011.7 hPa NW 6.4 km/h 17.7 km/h 25% 0 mm 784.0 W/m2
12:19 30.4 °C 7.6 °C 1011.4 hPa NW 13 km/h 16.1 km/h 24% 0 mm 768.0 W/m2
12:27 30.4 °C 7.6 °C 1011.4 hPa NW 13 km/h 16.1 km/h 24% 0 mm 768.0 W/m2
12:41 30.5 °C 8.8 °C 1011.1 hPa Calm   19.3 km/h 26% 0 mm 756.0 W/m2
12:52 30.8 °C 6.6 °C 1010.7 hPa NW 7.9 km/h 11.3 km/h 22% 0 mm 752.0 W/m2
13:07 31.2 °C 7 °C 1010.7 hPa NW 3.2 km/h 17.7 km/h 22% 0 mm 733.0 W/m2
13:15 31.3 °C 4.9 °C 1010.4 hPa NW 6.4 km/h 12.9 km/h 19% 0 mm 708.0 W/m2
13:36 31.5 °C 6.5 °C 1010 hPa Calm   9.7 km/h 21% 0 mm 687.0 W/m2
13:40 31.8 °C 6.8 °C 1010 hPa NW 14.3 km/h 25.7 km/h 21% 0 mm 671.0 W/m2
13:55 31.4 °C 6.4 °C 1010 hPa Calm     21% 0 mm 640.0 W/m2
14:18 31.8 °C 6.8 °C 1009.7 hPa NW 1.4 km/h 9.7 km/h 21% 0 mm 601.0 W/m2
14:26 31.7 °C 7.4 °C 1010 hPa NW 14.3 km/h 19.3 km/h 22% 0 mm 578.0 W/m2
14:42 31.6 °C 7.3 °C 1009.7 hPa Calm   8 km/h 22% 0 mm 538.0 W/m2
14:57 32 °C 7.6 °C 1009.7 hPa Calm   9.7 km/h 22% 0 mm 531.0 W/m2
15:12 31.9 °C 6.9 °C 1009.7 hPa Calm     21% 0 mm 211.0 W/m2
15:28 32.3 °C 7.2 °C 1009.4 hPa NW 11.1 km/h 12.9 km/h 21% 0 mm 425.0 W/m2
15:38 32.1 °C 7 °C 1009.4 hPa NW 1.4 km/h 1.6 km/h 21% 0 mm 387.0 W/m2
15:53 31.8 °C 6.1 °C 1009.4 hPa Calm   6.4 km/h 20% 0 mm 322.0 W/m2
16:08 31.6 °C 6.6 °C 1009 hPa Calm   17.7 km/h 21% 0 mm 258.0 W/m2
16:22 31.7 °C 6.7 °C 1009 hPa Calm     21% 0 mm 211.0 W/m2
16:31 31.6 °C 5.9 °C 1009 hPa Calm     20% 0 mm 176.0 W/m2
16:34 31.6 °C 6.6 °C 1009 hPa Calm     21% 0 mm 151.0 W/m2
16:39 31.7 °C 6.7 °C 1009 hPa Calm     21% 0 mm 132.0 W/m2
16:44 31.8 °C 6.1 °C 1009 hPa Calm     20% 0 mm 111.0 W/m2
16:54 31.4 °C 5.7 °C 1009 hPa Calm     20% 0 mm 60.0 W/m2
17:16 31.2 °C 6.3 °C 1009 hPa Calm     21% 0 mm 33.0 W/m2
17:25 30.6 °C 5.8 °C 1009 hPa South 30.6 km/h 30.6 km/h 21% 0 mm 19.0 W/m2
17:30 29.5 °C 5.5 °C 1009 hPa South 22.7 km/h 29 km/h 22% 0 mm 9.0 W/m2
17:46 29 °C 4.5 °C 1009.4 hPa South 22.7 km/h 30.6 km/h 21% 0 mm 0.0 W/m2
17:50 28.7 °C 3.5 °C 1009.4 hPa South 20.9 km/h 25.7 km/h 20% 0 mm 0.0 W/m2
18:00 28.4 °C 3.3 °C 1009.4 hPa South 19.5 km/h 30.6 km/h 20% 0 mm 0.0 W/m2
18:10 28.2 °C 3.1 °C 1009.7 hPa South 24.1 km/h 25.7 km/h 20% 0 mm 0.0 W/m2
18:20 27.9 °C 2.1 °C 1009.7 hPa South 16.3 km/h 20.9 km/h 19% 0 mm 0.0 W/m2
18:35 27.5 °C 1.8 °C 1010 hPa SSW 13 km/h 16.1 km/h 19% 0 mm 0.0 W/m2
18:44 27.4 °C 1 °C 1010 hPa SSW 17.7 km/h 19.3 km/h 18% 0 mm 0.0 W/m2
18:52 27.3 °C 0.9 °C 1010 hPa SSW 16.3 km/h 19.3 km/h 18% 0 mm 0.0 W/m2
19:07 26.7 °C 2.6 °C 1010.4 hPa SW 17.7 km/h 22.5 km/h 21% 0 mm 0.0 W/m2
19:15 26.2 °C 2.8 °C 1010.4 hPa SSW 17.7 km/h 17.7 km/h 22% 0 mm 0.0 W/m2
19:36 25.8 °C 3.1 °C 1010.4 hPa SSW 13 km/h 16.1 km/h 23% 0 mm 0.0 W/m2
19:41 25.6 °C 3.5 °C 1010.4 hPa SSW 16.3 km/h 17.7 km/h 24% 0 mm 0.0 W/m2
19:57 25.3 °C 3.3 °C 1010.7 hPa SSW 14.3 km/h 19.3 km/h 24% 0 mm 0.0 W/m2
20:01 25.1 °C 3.7 °C 1010.7 hPa SSW 14.3 km/h 17.7 km/h 25% 0 mm 0.0 W/m2
20:23 24.7 °C 4.4 °C 1010.7 hPa SSW 17.7 km/h 19.3 km/h 27% 0 mm 0.0 W/m2
20:31 24.3 °C 4.1 °C 1011.1 hPa SSW 11.1 km/h 17.7 km/h 27% 0 mm 0.0 W/m2
20:46 23.9 °C 3.8 °C 1011.4 hPa SSW 13 km/h 16.1 km/h 27% 0 mm 0.0 W/m2
21:08 23.6 °C 3.5 °C 1011.7 hPa SSW 14.3 km/h 14.5 km/h 27% 0 mm 0.0 W/m2
21:21 23.3 °C 3.8 °C 1011.7 hPa SSW 9.7 km/h 12.9 km/h 28% 0 mm 0.0 W/m2
21:31 23.1 °C 4.1 °C 1012.1 hPa SSW 4.7 km/h 11.3 km/h 29% 0 mm 0.0 W/m2
21:39 23 °C 4.5 °C 1012.4 hPa SSW 6.4 km/h 6.4 km/h 30% 0 mm 0.0 W/m2
Canyon Roadhouse, Fishriver Canyon, Namibia
Compliments of Weather Underground - 2.5 mb